createdAt,value
2022-11-16T00:02:46.335Z,83
2022-11-16T00:06:11.568Z,83
2022-11-16T00:09:36.814Z,84
2022-11-16T00:13:02.086Z,84
2022-11-16T00:16:27.278Z,84
2022-11-16T00:19:52.525Z,84
2022-11-16T00:23:17.741Z,83
2022-11-16T00:26:42.965Z,83
2022-11-16T00:30:08.215Z,83
2022-11-16T00:33:33.418Z,84
2022-11-16T00:36:58.640Z,83
2022-11-16T00:40:23.876Z,84
2022-11-16T00:43:49.133Z,84
2022-11-16T00:47:14.382Z,83
2022-11-16T00:50:39.564Z,83
2022-11-16T00:54:04.868Z,83
2022-11-16T00:57:30.105Z,82
2022-11-16T01:00:55.378Z,82
2022-11-16T01:04:20.555Z,83
2022-11-16T01:07:45.770Z,82
2022-11-16T01:11:10.982Z,82
2022-11-16T01:14:36.206Z,82
2022-11-16T01:18:01.435Z,82
2022-11-16T01:21:26.692Z,83
2022-11-16T01:24:51.905Z,82
2022-11-16T01:28:17.126Z,81
2022-11-16T01:31:42.351Z,81
2022-11-16T01:35:07.595Z,82
2022-11-16T01:38:33.142Z,82
2022-11-16T01:41:58.052Z,82
2022-11-16T01:45:23.288Z,82
2022-11-16T01:48:48.540Z,82
2022-11-16T01:52:13.732Z,82
2022-11-16T01:55:38.985Z,82
2022-11-16T01:59:04.200Z,82
2022-11-16T02:02:29.427Z,81
2022-11-16T02:05:54.672Z,81
2022-11-16T02:09:19.916Z,81
2022-11-16T02:12:45.170Z,81
2022-11-16T02:16:10.378Z,81
2022-11-16T02:19:35.612Z,81
2022-11-16T02:23:00.835Z,81
2022-11-16T02:26:26.073Z,82
2022-11-16T02:29:51.354Z,82
2022-11-16T02:33:16.561Z,83
2022-11-16T02:36:41.839Z,82
2022-11-16T02:40:07.073Z,82
2022-11-16T02:43:32.335Z,82
2022-11-16T02:46:57.562Z,82
2022-11-16T02:50:22.771Z,82
2022-11-16T02:53:47.987Z,82
2022-11-16T02:57:13.198Z,82
2022-11-16T03:00:38.521Z,82
2022-11-16T03:04:03.678Z,82
2022-11-16T03:07:28.887Z,82
2022-11-16T03:10:54.095Z,82
2022-11-16T03:14:19.326Z,82
2022-11-16T03:17:44.536Z,83
2022-11-16T03:21:09.787Z,83
2022-11-16T03:24:34.985Z,84
2022-11-16T03:28:00.210Z,84
2022-11-16T03:31:25.432Z,83
2022-11-16T03:34:50.671Z,83
2022-11-16T03:38:15.909Z,84
2022-11-16T03:41:41.122Z,83
2022-11-16T03:45:06.357Z,83
2022-11-16T03:48:31.962Z,83
2022-11-16T03:51:56.848Z,82
2022-11-16T03:55:22.101Z,82
2022-11-16T03:58:47.290Z,82
2022-11-16T04:02:12.513Z,82
2022-11-16T04:05:37.727Z,83
2022-11-16T04:09:02.954Z,83
2022-11-16T04:12:28.178Z,83
2022-11-16T04:15:53.367Z,83
2022-11-16T04:19:18.571Z,83
2022-11-16T04:22:43.782Z,82
2022-11-16T04:26:09.004Z,82
2022-11-16T04:29:34.246Z,82
2022-11-16T04:32:59.410Z,83
2022-11-16T04:36:24.624Z,83
2022-11-16T04:39:49.881Z,83
2022-11-16T04:43:15.076Z,82
2022-11-16T04:46:40.317Z,82
2022-11-16T04:50:05.521Z,83
2022-11-16T04:53:30.737Z,83
2022-11-16T04:56:55.965Z,83
2022-11-16T05:00:21.247Z,83
2022-11-16T05:03:46.480Z,83
2022-11-16T05:07:11.701Z,83
2022-11-16T05:10:36.897Z,83
2022-11-16T05:14:02.087Z,83
2022-11-16T05:17:27.296Z,84
2022-11-16T05:20:52.560Z,83
2022-11-16T05:24:17.728Z,83
2022-11-16T05:27:42.920Z,84
2022-11-16T05:31:08.169Z,84
2022-11-16T05:34:33.364Z,84
2022-11-16T05:37:58.638Z,83
2022-11-16T05:41:23.818Z,83
2022-11-16T05:44:49.021Z,83
2022-11-16T05:48:14.240Z,83
2022-11-16T05:51:39.466Z,83
2022-11-16T05:55:04.708Z,83
2022-11-16T05:58:29.900Z,84
2022-11-16T06:01:55.103Z,86
2022-11-16T06:05:20.352Z,86
2022-11-16T06:08:45.546Z,87
2022-11-16T06:12:10.800Z,88
2022-11-16T06:15:36.099Z,90
2022-11-16T06:19:01.687Z,91
2022-11-16T06:22:26.533Z,91
2022-11-16T06:25:51.761Z,91
2022-11-16T06:29:16.964Z,92
2022-11-16T06:32:42.144Z,92
2022-11-16T06:36:07.373Z,92
2022-11-16T06:39:32.548Z,93
2022-11-16T06:42:57.753Z,93
2022-11-16T06:46:22.966Z,93
2022-11-16T06:49:48.174Z,92
2022-11-16T06:53:13.650Z,92
2022-11-16T06:56:38.588Z,92
2022-11-16T07:00:03.793Z,92
2022-11-16T07:03:29.006Z,91
2022-11-16T07:06:54.295Z,91
2022-11-16T07:10:19.618Z,91
2022-11-16T07:13:44.659Z,90
2022-11-16T07:17:09.953Z,90
2022-11-16T07:20:35.087Z,90
2022-11-16T07:24:00.326Z,90
2022-11-16T07:27:25.520Z,90
2022-11-16T07:30:50.723Z,89
2022-11-16T07:34:15.920Z,88
2022-11-16T07:37:41.133Z,88
2022-11-16T07:41:06.345Z,88
2022-11-16T07:44:31.658Z,89
2022-11-16T07:47:56.751Z,90
2022-11-16T07:51:21.953Z,90
2022-11-16T07:54:47.149Z,90
2022-11-16T07:58:12.346Z,91
2022-11-16T08:01:37.770Z,90
2022-11-16T08:05:02.744Z,90
2022-11-16T08:08:27.950Z,90
2022-11-16T08:11:53.159Z,90
2022-11-16T08:15:18.364Z,91
2022-11-16T08:18:43.699Z,91
2022-11-16T08:22:08.782Z,92
2022-11-16T08:25:33.975Z,91
2022-11-16T08:28:59.169Z,91
2022-11-16T08:32:24.383Z,91
2022-11-16T08:35:49.706Z,90
2022-11-16T08:39:14.788Z,91
2022-11-16T08:42:43.589Z,91
2022-11-16T08:46:05.225Z,91
2022-11-16T08:49:30.422Z,92
2022-11-16T08:52:55.776Z,91
2022-11-16T08:56:20.849Z,91
2022-11-16T08:59:46.071Z,92
2022-11-16T09:03:11.312Z,92
2022-11-16T09:06:36.533Z,92
2022-11-16T09:10:01.850Z,91
2022-11-16T09:13:26.964Z,92
2022-11-16T09:16:52.201Z,92
2022-11-16T09:20:17.406Z,92
2022-11-16T09:23:42.596Z,93
2022-11-16T09:27:07.854Z,93
2022-11-16T09:30:33.046Z,93
2022-11-16T09:33:58.372Z,93
2022-11-16T09:37:23.456Z,92
2022-11-16T09:40:48.652Z,93
2022-11-16T09:44:13.904Z,93
2022-11-16T09:47:39.069Z,93
2022-11-16T09:51:04.397Z,92
2022-11-16T09:54:29.563Z,92
2022-11-16T09:57:54.774Z,93
2022-11-16T10:01:20.187Z,93
2022-11-16T10:04:45.179Z,93
2022-11-16T10:08:10.391Z,93
2022-11-16T10:11:35.597Z,92
2022-11-16T10:15:00.824Z,93
2022-11-16T10:18:26.159Z,93
2022-11-16T10:21:51.225Z,93
2022-11-16T10:25:16.470Z,93
2022-11-16T10:28:41.676Z,93
2022-11-16T10:32:06.869Z,93
2022-11-16T10:35:32.106Z,93
2022-11-16T10:38:57.289Z,93
2022-11-16T10:42:22.488Z,92
2022-11-16T10:45:47.710Z,92
2022-11-16T10:49:12.911Z,92
2022-11-16T10:52:38.129Z,92
2022-11-16T10:56:03.310Z,93
2022-11-16T10:59:28.519Z,93
2022-11-16T11:02:53.733Z,93
2022-11-16T11:06:18.952Z,93
2022-11-16T11:09:44.284Z,94
2022-11-16T11:13:09.377Z,93
2022-11-16T11:16:34.574Z,93
2022-11-16T11:19:59.787Z,93
2022-11-16T11:23:25.012Z,93
2022-11-16T11:26:50.319Z,93
2022-11-16T11:30:15.498Z,94
2022-11-16T11:33:40.633Z,94
2022-11-16T11:37:05.826Z,94
2022-11-16T11:40:31.056Z,94
2022-11-16T11:43:56.372Z,94
2022-11-16T11:50:46.656Z,93
2022-11-16T11:54:11.870Z,93
2022-11-16T11:57:37.064Z,93
2022-11-16T12:01:02.307Z,93
2022-11-16T12:04:27.507Z,93
2022-11-16T12:07:52.717Z,94
2022-11-16T12:11:17.929Z,94
2022-11-16T12:14:43.140Z,94
2022-11-16T12:18:08.466Z,93
2022-11-16T12:21:33.552Z,93
2022-11-16T12:24:58.759Z,93
2022-11-16T12:28:23.962Z,94
2022-11-16T12:31:49.168Z,94
2022-11-16T12:35:14.498Z,94
2022-11-16T12:38:40.763Z,94
2022-11-16T12:42:05.951Z,94
2022-11-16T12:45:32.531Z,94
2022-11-16T12:48:56.424Z,94
2022-11-16T12:52:21.773Z,94
2022-11-16T12:55:47.157Z,94
2022-11-16T12:59:12.428Z,94
2022-11-16T13:02:37.721Z,94
2022-11-16T13:06:03.015Z,94
2022-11-16T13:09:28.326Z,94
2022-11-16T13:13:03.979Z,94
2022-11-16T13:16:18.902Z,94
2022-11-16T13:19:44.162Z,94
2022-11-16T13:23:09.468Z,95
2022-11-16T13:26:34.790Z,95
2022-11-16T13:30:00.041Z,95
2022-11-16T13:33:25.451Z,95
2022-11-16T13:36:50.732Z,95
2022-11-16T13:40:15.999Z,94
2022-11-16T13:43:41.452Z,94
2022-11-16T13:47:06.604Z,94
2022-11-16T13:50:37.182Z,94
2022-11-16T13:54:43.731Z,94
2022-11-16T13:57:22.440Z,94
2022-11-16T14:00:47.853Z,94
2022-11-16T14:04:13.069Z,93
2022-11-16T14:07:38.348Z,94
2022-11-16T14:11:03.643Z,94
2022-11-16T14:14:28.923Z,94
2022-11-16T14:17:54.215Z,94
2022-11-16T14:21:19.506Z,94
2022-11-16T14:24:44.829Z,94
2022-11-16T14:28:10.143Z,93
2022-11-16T15:05:02.332Z,93
2022-11-16T15:08:27.496Z,93
2022-11-16T15:11:52.714Z,93
2022-11-16T15:15:17.950Z,93
2022-11-16T15:18:43.299Z,93
2022-11-16T15:22:08.796Z,94
2022-11-16T15:25:33.931Z,93
2022-11-16T15:28:59.312Z,93
2022-11-16T15:32:24.562Z,93
2022-11-16T15:35:49.821Z,93
2022-11-16T15:39:15.246Z,93
2022-11-16T15:42:40.386Z,92
2022-11-16T15:46:05.704Z,93
2022-11-16T15:49:31.004Z,93
2022-11-16T15:52:56.390Z,93
2022-11-16T15:56:21.698Z,93
2022-11-16T15:59:46.886Z,94
2022-11-16T16:03:12.165Z,94
2022-11-16T16:06:37.423Z,94
2022-11-16T16:10:02.782Z,95
2022-11-16T16:13:28.187Z,95
2022-11-16T16:16:53.316Z,95
2022-11-16T16:20:18.599Z,95
2022-11-16T16:23:43.890Z,94
2022-11-16T16:27:09.138Z,94
2022-11-16T16:30:34.521Z,94
2022-11-16T16:33:59.712Z,94
2022-11-16T16:37:24.979Z,94
2022-11-16T16:40:50.239Z,93
2022-11-16T16:44:15.515Z,93
2022-11-16T16:47:40.907Z,92
2022-11-16T16:51:06.045Z,92
2022-11-16T16:54:31.365Z,91
2022-11-16T16:57:56.653Z,91
2022-11-16T17:01:21.958Z,90
2022-11-16T17:04:47.223Z,90
2022-11-16T17:08:12.463Z,90
2022-11-16T17:11:37.825Z,90
2022-11-16T17:15:03.071Z,90
2022-11-16T17:18:28.369Z,90
2022-11-16T17:21:53.779Z,90
2022-11-16T17:25:18.950Z,91
2022-11-16T17:28:44.208Z,92
2022-11-16T17:32:09.513Z,92
2022-11-16T17:35:34.797Z,92
2022-11-16T17:39:00.096Z,92
2022-11-16T17:42:25.346Z,92
2022-11-16T17:45:50.664Z,92
2022-11-16T17:49:15.963Z,93
2022-11-16T17:52:41.258Z,92
2022-11-16T17:56:06.580Z,92
2022-11-16T17:59:31.828Z,92
2022-11-16T18:02:57.171Z,93
2022-11-16T18:06:22.442Z,93
2022-11-16T18:09:47.731Z,93
2022-11-16T18:13:13.050Z,93
2022-11-16T18:16:38.296Z,93
2022-11-16T18:20:03.575Z,93
2022-11-16T18:23:28.897Z,93
2022-11-16T18:26:54.171Z,92
2022-11-16T18:30:19.595Z,93
2022-11-16T18:33:44.740Z,93
2022-11-16T18:37:10.060Z,93
2022-11-16T18:40:35.324Z,93
2022-11-16T18:44:00.684Z,92
2022-11-16T18:47:25.989Z,92
2022-11-16T18:50:51.268Z,93
2022-11-16T18:54:21.548Z,93
2022-11-16T18:57:47.567Z,92
2022-11-16T19:01:12.943Z,92
2022-11-16T19:04:39.454Z,92
2022-11-16T19:08:04.637Z,92
2022-11-16T19:11:29.942Z,93
2022-11-16T19:14:55.221Z,93
2022-11-16T19:18:21.977Z,93
2022-11-16T19:21:45.669Z,92
2022-11-16T19:25:10.859Z,92
2022-11-16T19:28:36.073Z,91
2022-11-16T19:32:01.345Z,90
2022-11-16T19:35:26.589Z,90
2022-11-16T19:38:51.943Z,89
2022-11-16T19:42:17.049Z,89
2022-11-16T19:45:42.336Z,87
2022-11-16T19:49:07.555Z,88
2022-11-16T19:52:32.799Z,88
2022-11-16T19:55:58.124Z,89
2022-11-16T19:59:23.270Z,88
2022-11-16T20:02:48.480Z,89
2022-11-16T20:06:13.680Z,90
2022-11-16T20:09:38.912Z,89
2022-11-16T20:13:05.077Z,89
2022-11-16T20:16:34.020Z,89
2022-11-16T20:19:55.414Z,89
2022-11-16T20:23:20.674Z,89
2022-11-16T20:26:45.897Z,89
2022-11-16T20:30:11.227Z,89
2022-11-16T20:33:36.753Z,88
2022-11-16T20:37:01.601Z,89
2022-11-16T20:40:26.844Z,90
2022-11-16T20:43:52.094Z,90
2022-11-16T20:47:17.328Z,90
2022-11-16T20:50:42.600Z,91
2022-11-16T20:54:07.861Z,90
2022-11-16T20:57:33.080Z,89
2022-11-16T21:00:58.327Z,89
2022-11-16T21:04:23.685Z,89
2022-11-16T21:07:48.739Z,89
2022-11-16T21:11:13.989Z,89
2022-11-16T21:14:39.262Z,88
2022-11-16T21:18:04.470Z,88
2022-11-16T21:21:29.808Z,88
2022-11-16T21:24:54.898Z,89
2022-11-16T21:28:24.264Z,89
2022-11-16T21:31:45.301Z,89
2022-11-16T21:35:10.549Z,90
2022-11-16T21:38:35.921Z,89
2022-11-16T21:42:01.005Z,89
2022-11-16T21:45:26.181Z,89
2022-11-16T21:48:51.401Z,89
2022-11-16T21:52:16.585Z,90
2022-11-16T21:55:41.912Z,90
2022-11-16T21:59:06.992Z,91
2022-11-16T22:02:32.181Z,90
2022-11-16T22:05:57.434Z,90
2022-11-16T22:09:22.633Z,89
2022-11-16T22:12:47.850Z,89
2022-11-16T22:16:13.017Z,89
2022-11-16T22:19:38.238Z,89
2022-11-16T22:23:03.444Z,90
2022-11-16T22:26:28.630Z,90
2022-11-16T22:29:53.966Z,90
2022-11-16T22:33:19.049Z,90
2022-11-16T22:36:44.233Z,90
2022-11-16T22:40:11.431Z,90
2022-11-16T22:43:34.952Z,90
2022-11-16T22:47:00.014Z,90
2022-11-16T22:50:25.087Z,90
2022-11-16T22:53:50.281Z,90
2022-11-16T22:57:15.509Z,90
2022-11-16T23:00:42.276Z,91
2022-11-16T23:04:05.949Z,91
2022-11-16T23:07:31.228Z,91
2022-11-16T23:10:56.329Z,91
2022-11-16T23:14:21.518Z,91
2022-11-16T23:17:46.711Z,92
2022-11-16T23:21:12.029Z,92
2022-11-16T23:24:37.119Z,92
2022-11-16T23:28:02.325Z,92
2022-11-16T23:31:27.530Z,92
2022-11-16T23:34:52.733Z,93
2022-11-16T23:38:18.037Z,92
2022-11-16T23:41:43.104Z,92
2022-11-16T23:45:08.319Z,92
2022-11-16T23:48:33.503Z,92
2022-11-16T23:51:58.699Z,92
2022-11-16T23:55:23.930Z,92
2022-11-16T23:58:49.118Z,92
